createdAt,value
2022-12-03T00:02:41.758Z,1.60
2022-12-03T00:05:52.418Z,1.58
2022-12-03T00:09:01.841Z,1.55
2022-12-03T00:12:09.366Z,1.53
2022-12-03T00:15:17.481Z,1.65
2022-12-03T00:18:26.622Z,1.63
2022-12-03T00:21:31.856Z,1.72
2022-12-03T00:24:39.426Z,1.76
2022-12-03T00:27:47.188Z,1.78
2022-12-03T00:30:54.722Z,1.64
2022-12-03T00:33:59.921Z,1.56
2022-12-03T00:37:08.234Z,1.52
2022-12-03T00:40:16.053Z,1.50
2022-12-03T00:43:22.998Z,1.56
2022-12-03T00:46:28.967Z,1.74
2022-12-03T00:49:36.176Z,1.70
2022-12-03T00:52:45.882Z,1.59
2022-12-03T00:55:53.078Z,1.61
2022-12-03T00:59:03.082Z,1.57
2022-12-03T01:02:11.162Z,1.53
2022-12-03T01:05:19.550Z,1.56
2022-12-03T01:08:26.823Z,1.48
2022-12-03T01:11:42.333Z,1.43
2022-12-03T01:14:48.528Z,1.44
2022-12-03T01:17:56.144Z,1.41
2022-12-03T01:21:05.017Z,1.45
2022-12-03T01:24:11.498Z,1.48
2022-12-03T01:27:18.365Z,1.55
2022-12-03T01:30:22.597Z,1.61
2022-12-03T01:33:29.419Z,1.66
2022-12-03T01:36:39.312Z,1.57
2022-12-03T01:39:45.358Z,1.49
2022-12-03T01:42:52.710Z,1.48
2022-12-03T01:46:01.735Z,1.48
2022-12-03T01:49:08.421Z,1.48
2022-12-03T01:52:21.403Z,1.46
2022-12-03T01:55:28.991Z,1.54
2022-12-03T01:58:35.780Z,1.58
2022-12-03T02:01:42.566Z,1.56
2022-12-03T02:04:50.111Z,1.56
2022-12-03T02:07:56.827Z,1.62
2022-12-03T02:11:05.428Z,1.72
2022-12-03T02:14:14.397Z,1.85
2022-12-03T02:17:22.691Z,1.72
2022-12-03T02:20:29.934Z,1.67
2022-12-03T02:24:07.371Z,1.63
2022-12-03T02:27:14.389Z,1.63
2022-12-03T02:30:23.051Z,1.73
2022-12-03T02:33:31.311Z,1.83
2022-12-03T02:36:39.166Z,1.81
2022-12-03T02:39:48.880Z,1.81
2022-12-03T02:42:56.539Z,1.84
2022-12-03T02:46:06.362Z,1.77
2022-12-03T02:49:13.358Z,1.73
2022-12-03T02:52:23.367Z,1.86
2022-12-03T02:55:36.515Z,1.76
2022-12-03T02:58:48.546Z,1.70
2022-12-03T03:01:55.248Z,1.66
2022-12-03T03:05:03.479Z,1.65
2022-12-03T03:08:09.781Z,1.74
2022-12-03T03:11:18.245Z,1.69
2022-12-03T03:14:23.484Z,1.71
2022-12-03T03:17:30.838Z,1.67
2022-12-03T03:20:38.661Z,1.67
2022-12-03T03:23:46.299Z,1.69
2022-12-03T03:26:56.310Z,1.71
2022-12-03T03:30:05.379Z,1.74
2022-12-03T03:33:13.468Z,1.72
2022-12-03T03:36:24.235Z,1.76
2022-12-03T03:39:30.943Z,1.95
2022-12-03T03:42:40.381Z,1.91
2022-12-03T03:45:47.096Z,1.85
2022-12-03T03:48:52.722Z,1.86
2022-12-03T03:51:58.520Z,1.83
2022-12-03T03:55:09.240Z,1.82
2022-12-03T03:58:14.147Z,1.80
2022-12-03T04:01:20.745Z,1.85
2022-12-03T04:04:28.041Z,1.96
2022-12-03T04:07:33.567Z,1.87
2022-12-03T04:11:00.860Z,1.86
2022-12-03T04:14:06.798Z,1.88
2022-12-03T04:17:13.765Z,1.92
2022-12-03T04:20:22.892Z,1.96
2022-12-03T04:23:31.012Z,1.95
2022-12-03T04:26:56.614Z,1.98
2022-12-03T04:30:06.184Z,2.01
2022-12-03T04:33:30.449Z,2.14
2022-12-03T04:36:38.325Z,2.16
2022-12-03T04:39:44.636Z,2.07
2022-12-03T04:42:51.066Z,2.11
2022-12-03T04:45:56.948Z,1.98
2022-12-03T04:49:05.385Z,2.03
2022-12-03T04:52:11.318Z,2.01
2022-12-03T04:55:18.259Z,2.24
2022-12-03T04:58:25.332Z,2.05
2022-12-03T05:01:34.232Z,1.98
2022-12-03T05:04:41.705Z,1.91
2022-12-03T05:07:50.888Z,1.95
2022-12-03T05:10:57.684Z,1.83
2022-12-03T05:14:04.634Z,1.86
2022-12-03T05:17:11.098Z,1.92
2022-12-03T05:20:36.744Z,1.95
2022-12-03T05:23:42.947Z,1.82
2022-12-03T05:26:49.642Z,1.82
2022-12-03T05:29:56.315Z,1.84
2022-12-03T05:33:03.656Z,1.86
2022-12-03T05:36:09.016Z,1.98
2022-12-03T05:39:16.478Z,1.85
2022-12-03T05:42:41.804Z,1.80
2022-12-03T05:45:47.284Z,1.77
2022-12-03T05:48:53.149Z,1.83
2022-12-03T05:52:02.661Z,1.80
2022-12-03T05:55:08.672Z,1.83
2022-12-03T05:58:18.839Z,1.98
2022-12-03T06:01:24.491Z,2.04
2022-12-03T06:04:31.843Z,1.91
2022-12-03T06:07:40.341Z,1.78
2022-12-03T06:10:47.686Z,1.92
2022-12-03T06:13:53.377Z,1.96
2022-12-03T06:17:01.893Z,2.04
2022-12-03T06:20:07.382Z,2.17
2022-12-03T06:23:15.540Z,2.15
2022-12-03T06:26:23.672Z,2.11
2022-12-03T06:29:32.282Z,2.12
2022-12-03T06:32:41.082Z,1.92
2022-12-03T06:35:47.291Z,1.92
2022-12-03T06:38:58.848Z,1.87
2022-12-03T06:42:04.734Z,2.06
2022-12-03T06:45:10.057Z,2.09
2022-12-03T06:48:16.236Z,1.96
2022-12-03T06:51:23.588Z,2.03
2022-12-03T06:54:29.227Z,2.12
2022-12-03T06:57:36.194Z,2.27
2022-12-03T07:00:42.399Z,2.40
2022-12-03T07:03:49.400Z,2.44
2022-12-03T07:06:58.135Z,2.30
2022-12-03T07:10:05.839Z,2.31
2022-12-03T07:13:13.376Z,2.33
2022-12-03T07:16:21.041Z,2.36
2022-12-03T07:19:33.003Z,2.47
2022-12-03T07:22:41.644Z,2.34
2022-12-03T07:25:51.599Z,2.37
2022-12-03T07:28:57.065Z,2.41
2022-12-03T07:32:04.351Z,2.43
2022-12-03T07:35:09.331Z,2.52
2022-12-03T07:38:18.454Z,2.36
2022-12-03T07:41:27.096Z,2.54
2022-12-03T07:44:35.364Z,2.50
2022-12-03T07:47:40.124Z,2.50
2022-12-03T07:50:46.541Z,2.42
2022-12-03T07:53:52.965Z,2.48
2022-12-03T07:57:01.685Z,2.52
2022-12-03T08:00:08.418Z,2.47
2022-12-03T08:03:17.151Z,2.61
2022-12-03T08:06:26.671Z,3.00
2022-12-03T08:09:34.258Z,2.89
2022-12-03T08:12:43.549Z,3.02
2022-12-03T08:15:51.913Z,2.88
2022-12-03T08:18:58.669Z,2.83
2022-12-03T08:22:14.834Z,2.77
2022-12-03T08:25:31.842Z,2.87
2022-12-03T08:28:38.065Z,2.99
2022-12-03T08:31:44.690Z,2.97
2022-12-03T08:34:54.352Z,3.24
2022-12-03T08:38:03.530Z,3.32
2022-12-03T08:41:16.177Z,3.26
2022-12-03T08:44:33.604Z,3.15
2022-12-03T08:47:41.024Z,3.18
2022-12-03T08:50:48.738Z,3.19
2022-12-03T08:54:02.523Z,3.29
2022-12-03T08:57:23.373Z,3.25
2022-12-03T09:00:30.002Z,3.22
2022-12-03T09:03:36.647Z,3.45
2022-12-03T09:06:44.151Z,3.90
2022-12-03T09:09:51.951Z,3.75
2022-12-03T09:12:58.695Z,4.04
2022-12-03T09:16:03.851Z,3.97
2022-12-03T09:19:08.816Z,3.91
2022-12-03T09:22:13.471Z,4.14
2022-12-03T09:25:18.482Z,4.15
2022-12-03T09:28:24.656Z,4.03
2022-12-03T09:31:32.957Z,4.41
2022-12-03T09:34:38.148Z,5.02
2022-12-03T09:37:44.383Z,5.50
2022-12-03T09:40:48.578Z,5.63
2022-12-03T09:44:13.923Z,5.08
2022-12-03T09:47:18.670Z,5.21
2022-12-03T09:50:28.873Z,5.12
2022-12-03T09:53:41.069Z,5.14
2022-12-03T09:56:47.910Z,4.97
2022-12-03T09:59:58.954Z,5.59
2022-12-03T10:03:05.087Z,5.96
2022-12-03T10:06:12.472Z,6.13
2022-12-03T10:09:23.907Z,5.73
2022-12-03T10:12:31.573Z,5.91
2022-12-03T10:15:37.137Z,6.35
2022-12-03T10:18:52.982Z,6.45
2022-12-03T10:21:59.182Z,6.05
2022-12-03T10:25:12.309Z,6.20
2022-12-03T10:28:27.369Z,5.81
2022-12-03T10:31:38.390Z,5.95
2022-12-03T10:34:44.099Z,6.44
2022-12-03T10:38:02.251Z,6.57
2022-12-03T10:41:22.082Z,6.82
2022-12-03T10:44:28.262Z,7.27
2022-12-03T10:47:34.701Z,7.62
2022-12-03T10:50:52.879Z,7.18
2022-12-03T10:53:59.248Z,7.28
2022-12-03T10:57:05.656Z,7.96
2022-12-03T11:00:17.288Z,8.58
2022-12-03T11:03:27.242Z,8.14
2022-12-03T11:06:36.459Z,8.84
2022-12-03T11:09:44.672Z,8.63
2022-12-03T11:13:10.991Z,7.67
2022-12-03T11:16:17.281Z,7.52
2022-12-03T11:19:37.100Z,6.93
2022-12-03T11:22:46.070Z,7.38
2022-12-03T11:25:54.105Z,8.09
2022-12-03T11:29:01.376Z,8.26
2022-12-03T11:32:06.080Z,8.43
2022-12-03T11:35:23.381Z,8.14
2022-12-03T11:38:52.908Z,7.83
2022-12-03T11:42:29.980Z,7.55
2022-12-03T11:45:42.018Z,7.35
2022-12-03T11:48:49.781Z,7.72
2022-12-03T11:51:56.941Z,7.68
2022-12-03T11:55:07.008Z,7.68
2022-12-03T11:58:30.008Z,7.94
2022-12-03T12:01:38.759Z,7.77
2022-12-03T12:04:47.617Z,7.59
2022-12-03T12:07:52.857Z,7.22
2022-12-03T12:10:59.671Z,7.34
2022-12-03T12:14:10.578Z,7.68
2022-12-03T12:17:34.391Z,8.08
2022-12-03T12:20:41.384Z,8.27
2022-12-03T12:23:47.788Z,8.29
2022-12-03T12:26:55.675Z,8.18
2022-12-03T12:30:05.413Z,8.20
2022-12-03T12:33:20.563Z,7.79
2022-12-03T12:36:26.307Z,7.99
2022-12-03T12:39:32.285Z,7.63
2022-12-03T12:42:38.614Z,7.86
2022-12-03T12:45:45.210Z,7.30
2022-12-03T12:48:59.325Z,7.01
2022-12-03T12:52:08.507Z,6.97
2022-12-03T12:55:17.477Z,6.96
2022-12-03T12:58:23.380Z,6.91
2022-12-03T13:01:31.788Z,7.03
2022-12-03T13:04:41.182Z,6.84
2022-12-03T13:07:46.655Z,6.74
2022-12-03T13:10:54.146Z,6.53
2022-12-03T13:14:02.034Z,6.70
2022-12-03T13:17:21.683Z,6.31
2022-12-03T13:20:28.973Z,6.26
2022-12-03T13:23:35.419Z,6.21
2022-12-03T13:26:41.876Z,6.18
2022-12-03T13:29:48.064Z,6.35
2022-12-03T13:32:59.101Z,6.14
2022-12-03T13:36:13.009Z,6.02
2022-12-03T13:39:25.802Z,6.22
2022-12-03T13:42:43.387Z,6.13
2022-12-03T13:45:51.934Z,6.15
2022-12-03T13:49:02.571Z,6.23
2022-12-03T13:52:16.768Z,6.25
2022-12-03T13:55:31.060Z,6.18
2022-12-03T13:58:38.874Z,6.33
2022-12-03T14:01:48.105Z,6.05
2022-12-03T14:05:00.520Z,5.88
2022-12-03T14:08:12.076Z,5.90
2022-12-03T14:11:36.112Z,5.89
2022-12-03T14:14:40.724Z,5.84
2022-12-03T14:17:45.463Z,5.81
2022-12-03T14:20:52.794Z,5.86
2022-12-03T14:24:03.132Z,5.74
2022-12-03T14:27:10.024Z,5.74
2022-12-03T14:30:15.867Z,5.71
2022-12-03T14:33:22.693Z,5.69
2022-12-03T14:36:29.747Z,5.72
2022-12-03T14:39:35.481Z,5.63
2022-12-03T14:42:41.050Z,5.64
2022-12-03T14:45:46.885Z,5.55
2022-12-03T14:48:54.128Z,5.50
2022-12-03T14:52:00.911Z,5.54
2022-12-03T14:55:07.194Z,5.53
2022-12-03T14:58:16.003Z,5.40
2022-12-03T15:01:24.830Z,5.42
2022-12-03T15:04:31.669Z,5.28
2022-12-03T15:07:40.368Z,5.20
2022-12-03T15:10:47.926Z,5.20
2022-12-03T15:13:54.904Z,5.14
2022-12-03T15:17:03.677Z,5.12
2022-12-03T15:20:09.949Z,5.09
2022-12-03T15:23:15.900Z,5.16
2022-12-03T15:26:24.967Z,5.09
2022-12-03T15:29:32.404Z,4.96
2022-12-03T15:32:39.685Z,4.82
2022-12-03T15:35:47.569Z,4.75
2022-12-03T15:38:54.022Z,4.68
2022-12-03T15:42:01.510Z,4.58
2022-12-03T15:45:13.444Z,4.46
2022-12-03T15:48:21.542Z,4.47
2022-12-03T15:51:29.752Z,4.48
2022-12-03T15:54:36.526Z,4.35
2022-12-03T15:57:45.676Z,4.27
2022-12-03T16:00:50.933Z,4.23
2022-12-03T16:04:00.358Z,4.17
2022-12-03T16:07:05.308Z,4.11
2022-12-03T16:10:13.489Z,4.03
2022-12-03T16:13:22.540Z,3.98
2022-12-03T16:16:31.098Z,3.97
2022-12-03T16:19:36.753Z,3.94
2022-12-03T16:22:42.913Z,3.93
2022-12-03T16:25:47.264Z,3.85
2022-12-03T16:28:55.361Z,3.79
2022-12-03T16:32:04.974Z,3.79
2022-12-03T16:35:11.298Z,3.73
2022-12-03T16:38:17.484Z,3.70
2022-12-03T16:41:25.338Z,3.63
2022-12-03T16:44:44.619Z,3.63
2022-12-03T16:47:51.518Z,3.58
2022-12-03T16:50:56.916Z,3.64
2022-12-03T16:54:03.524Z,3.58
2022-12-03T16:57:08.483Z,3.62
2022-12-03T17:00:16.278Z,3.77
2022-12-03T17:03:28.988Z,3.74
2022-12-03T17:06:37.188Z,3.79
2022-12-03T17:09:42.839Z,3.75
2022-12-03T17:13:10.127Z,3.69
2022-12-03T17:16:18.993Z,3.72
2022-12-03T17:19:27.260Z,3.81
2022-12-03T17:22:34.561Z,3.73
2022-12-03T17:25:44.309Z,3.76
2022-12-03T17:28:52.817Z,3.77
2022-12-03T17:31:59.085Z,3.71
2022-12-03T17:35:07.299Z,3.68
2022-12-03T17:38:19.325Z,3.63
2022-12-03T17:41:27.134Z,3.54
2022-12-03T17:44:33.651Z,3.51
2022-12-03T17:47:40.054Z,3.45
2022-12-03T17:50:47.014Z,3.47
2022-12-03T17:53:52.818Z,3.43
2022-12-03T17:57:00.950Z,3.62
2022-12-03T18:00:08.305Z,3.54
2022-12-03T18:03:18.093Z,3.41
2022-12-03T18:06:25.602Z,3.43
2022-12-03T18:09:30.922Z,3.32
2022-12-03T18:12:36.218Z,3.30
2022-12-03T18:15:39.606Z,3.25
2022-12-03T18:18:44.871Z,3.32
2022-12-03T18:21:51.169Z,3.22
2022-12-03T18:24:59.198Z,3.14
2022-12-03T18:28:06.550Z,3.10
2022-12-03T18:31:15.291Z,3.04
2022-12-03T18:34:23.281Z,3.09
2022-12-03T18:37:31.420Z,3.00
2022-12-03T18:40:41.059Z,3.05
2022-12-03T18:43:52.800Z,2.96
2022-12-03T18:47:01.857Z,3.00
2022-12-03T18:50:09.905Z,2.97
2022-12-03T18:53:21.093Z,2.98
2022-12-03T18:56:28.778Z,2.99
2022-12-03T18:59:37.523Z,2.99
2022-12-03T19:03:02.475Z,3.12
2022-12-03T19:06:17.086Z,3.03
2022-12-03T19:09:26.891Z,2.97
2022-12-03T19:12:33.330Z,3.05
2022-12-03T19:15:41.199Z,3.00
2022-12-03T19:18:47.559Z,3.10
2022-12-03T19:21:54.158Z,3.18
2022-12-03T19:25:02.841Z,3.09
2022-12-03T19:28:11.008Z,3.12
2022-12-03T19:31:18.838Z,3.12
2022-12-03T19:34:28.872Z,3.10
2022-12-03T19:37:34.930Z,3.21
2022-12-03T19:40:43.433Z,3.23
2022-12-03T19:43:53.036Z,3.27
2022-12-03T19:47:00.165Z,3.30
2022-12-03T19:50:06.344Z,3.30
2022-12-03T19:53:13.275Z,3.30
2022-12-03T19:56:22.136Z,3.18
2022-12-03T19:59:29.979Z,3.26
2022-12-03T20:02:38.983Z,3.35
2022-12-03T20:05:45.457Z,3.36
2022-12-03T20:09:04.672Z,3.39
2022-12-03T20:12:10.160Z,3.42
2022-12-03T20:15:18.974Z,3.45
2022-12-03T20:18:27.321Z,3.43
2022-12-03T20:21:35.717Z,3.44
2022-12-03T20:24:43.193Z,3.43
2022-12-03T20:27:49.254Z,3.43
2022-12-03T20:31:02.822Z,3.47
2022-12-03T20:34:09.937Z,3.44
2022-12-03T20:37:17.656Z,3.44
2022-12-03T20:40:25.979Z,3.36
2022-12-03T20:43:36.577Z,3.27
2022-12-03T20:46:43.144Z,3.34
2022-12-03T20:49:50.765Z,3.44
2022-12-03T20:53:16.609Z,3.39
2022-12-03T20:56:27.115Z,3.39
2022-12-03T20:59:33.695Z,3.38
2022-12-03T21:02:42.166Z,3.28
2022-12-03T21:05:50.160Z,3.21
2022-12-03T21:08:57.759Z,3.25
2022-12-03T21:12:05.996Z,3.26
2022-12-03T21:15:11.927Z,3.32
2022-12-03T21:18:19.928Z,3.25
2022-12-03T21:21:25.166Z,3.31
2022-12-03T21:24:31.154Z,3.21
2022-12-03T21:27:35.798Z,3.13
2022-12-03T21:30:42.167Z,3.01
2022-12-03T21:33:49.255Z,3.03
2022-12-03T21:36:54.579Z,3.04
2022-12-03T21:40:06.014Z,3.01
2022-12-03T21:43:09.628Z,3.10
2022-12-03T21:47:08.146Z,3.07
2022-12-03T21:49:43.465Z,3.16
2022-12-03T21:52:51.565Z,3.16
2022-12-03T21:55:56.408Z,3.25
2022-12-03T21:59:00.984Z,3.13
2022-12-03T22:02:09.170Z,3.11
2022-12-03T22:05:14.447Z,3.09
2022-12-03T22:08:19.897Z,3.38
2022-12-03T22:11:25.627Z,3.42
2022-12-03T22:14:29.779Z,3.43
2022-12-03T22:17:36.316Z,3.35
2022-12-03T22:20:42.534Z,3.44
2022-12-03T22:23:48.874Z,3.41
2022-12-03T22:26:55.096Z,3.55
2022-12-03T22:30:03.681Z,3.46
2022-12-03T22:33:08.502Z,3.43
2022-12-03T22:36:20.037Z,3.48
2022-12-03T22:39:29.841Z,3.23
2022-12-03T22:42:35.983Z,3.19
2022-12-03T22:45:42.269Z,3.21
2022-12-03T22:48:50.070Z,3.26
2022-12-03T22:51:56.305Z,3.25
2022-12-03T22:55:04.079Z,3.23
2022-12-03T22:58:09.617Z,3.34
2022-12-03T23:01:22.820Z,3.33
2022-12-03T23:04:27.485Z,3.44
2022-12-03T23:07:34.679Z,3.44
2022-12-03T23:10:41.422Z,3.34
2022-12-03T23:13:49.419Z,3.48
2022-12-03T23:16:54.917Z,3.48
2022-12-03T23:20:04.902Z,3.50
2022-12-03T23:23:09.130Z,3.42
2022-12-03T23:26:14.077Z,3.44
2022-12-03T23:29:19.229Z,3.40
2022-12-03T23:32:24.075Z,3.28
2022-12-03T23:35:29.155Z,3.25
2022-12-03T23:38:36.482Z,3.28
2022-12-03T23:41:44.571Z,3.27
2022-12-03T23:44:52.603Z,3.18
2022-12-03T23:47:58.364Z,3.10
2022-12-03T23:51:11.881Z,3.06
2022-12-03T23:54:17.985Z,3.08
2022-12-03T23:57:25.788Z,2.99
